Time;durP1;ratioP1;P1;durP2;ratioP2;P2;SDS_P1;SDS_P2;PMS_P1;PMS_P2;Temp;Humidity;BMP_temperature;BMP_pressure;BME280_temperature;BME280_humidity;BME280_pressure;Samples;Min_cycle;Max_cycle;Signal;HPM_P1;HPM_P2
2021/05/07 00:01:53;;;;;;;3.50;2.38;;;;;;;7.26;87.76;97926.19;5049511;28;20028;-71
2021/05/07 00:04:20;;;;;;;2.90;2.50;;;;;;;7.22;88.03;97931.13;5064586;28;20039;-70
2021/05/07 00:06:47;;;;;;;3.58;2.22;;;;;;;7.12;88.09;97916.41;5068426;28;20040;-70
2021/05/07 00:09:12;;;;;;;3.17;2.20;;;;;;;7.22;88.01;97925.75;5070956;28;20115;-67
2021/05/07 00:11:38;;;;;;;3.05;2.38;;;;;;;7.25;88.08;97929.88;5064671;28;20529;-68
2021/05/07 00:14:03;;;;;;;2.80;2.00;;;;;;;7.25;87.89;97949.53;5053441;28;20032;-68
2021/05/07 00:16:29;;;;;;;1.65;1.35;;;;;;;7.26;86.15;97958.47;5065148;28;20386;-67
2021/05/07 00:18:55;;;;;;;1.52;1.33;;;;;;;7.29;85.58;97947.28;5053369;28;20111;-68
2021/05/07 00:21:20;;;;;;;0.98;0.90;;;;;;;7.33;84.70;97950.41;5073543;28;20044;-68
2021/05/07 00:23:46;;;;;;;0.65;0.65;;;;;;;7.29;83.99;97933.03;5073060;28;20107;-68
2021/05/07 00:26:11;;;;;;;1.05;0.70;;;;;;;7.31;84.49;97942.53;5070469;28;20070;-68
2021/05/07 00:28:37;;;;;;;4.43;0.93;;;;;;;7.27;84.75;97957.44;5051155;28;20036;-69
2021/05/07 00:31:03;;;;;;;2.05;0.95;;;;;;;7.25;84.54;97959.47;5070222;28;20024;-68
2021/05/07 00:33:29;;;;;;;4.63;1.00;;;;;;;7.35;84.31;97961.78;5073496;28;20024;-68
2021/05/07 00:35:54;;;;;;;1.08;0.70;;;;;;;7.46;82.69;97963.88;5048280;28;20024;-68
2021/05/07 00:38:19;;;;;;;0.88;0.60;;;;;;;7.38;81.57;97969.47;5068700;28;20458;-68
2021/05/07 00:40:45;;;;;;;0.70;0.60;;;;;;;7.45;81.88;97954.16;5062061;28;20039;-68
2021/05/07 00:43:11;;;;;;;1.42;0.75;;;;;;;7.35;82.40;97957.22;5073366;28;20485;-68
2021/05/07 00:45:36;;;;;;;3.42;0.90;;;;;;;7.39;83.43;97960.38;5070653;28;20126;-68
2021/05/07 00:48:06;;;;;;;1.15;0.80;;;;;;;7.32;83.41;97967.59;5056187;28;20146;-68
2021/05/07 00:50:33;;;;;;;1.35;0.70;;;;;;;7.20;83.23;97976.25;5073046;28;20025;-68
2021/05/07 00:52:59;;;;;;;1.27;0.80;;;;;;;7.23;83.41;97975.00;5070083;28;20082;-68
2021/05/07 00:55:26;;;;;;;1.08;0.57;;;;;;;7.09;83.46;97965.22;5051448;28;20043;-69
2021/05/07 00:57:52;;;;;;;0.80;0.50;;;;;;;7.17;83.87;97963.19;5057262;28;20367;-68
2021/05/07 01:00:18;;;;;;;1.25;0.50;;;;;;;7.13;83.35;97967.31;5052990;28;20094;-68
2021/05/07 01:02:43;;;;;;;4.15;0.63;;;;;;;7.11;84.20;97966.69;5063223;28;20425;-68
2021/05/07 01:05:09;;;;;;;0.70;0.47;;;;;;;6.94;84.76;97957.31;5065443;28;20056;-68
2021/05/07 01:07:35;;;;;;;1.88;0.75;;;;;;;6.96;85.60;97963.31;5052404;28;20158;-68
2021/05/07 01:10:04;;;;;;;1.95;0.90;;;;;;;6.85;86.23;97972.78;5066254;28;20044;-68
2021/05/07 01:12:30;;;;;;;4.10;1.00;;;;;;;6.76;86.40;97977.53;5071489;28;20445;-68
2021/05/07 01:15:13;;;;;;;1.30;0.60;;;;;;;6.82;86.81;97980.44;5050517;28;20111;-67
2021/05/07 01:17:44;;;;;;;3.30;0.75;;;;;;;6.74;86.97;97973.38;5052388;28;20083;-67
2021/05/07 01:20:18;;;;;;;1.30;0.77;;;;;;;6.70;87.35;97974.78;5057089;28;20533;-67
2021/05/07 01:22:49;;;;;;;5.47;1.00;;;;;;;6.63;87.36;97976.59;5071572;28;20039;-68
2021/05/07 01:25:17;;;;;;;1.10;0.90;;;;;;;6.59;87.41;97973.50;5071663;28;20032;-70
2021/05/07 01:27:45;;;;;;;1.60;0.90;;;;;;;6.56;87.15;97981.94;5075111;28;20037;-67
2021/05/07 01:30:12;;;;;;;1.70;1.02;;;;;;;6.59;87.45;97989.63;5077889;28;20020;-67
2021/05/07 01:32:38;;;;;;;1.75;1.15;;;;;;;6.59;86.16;97982.38;5078005;28;20428;-70
2021/05/07 01:35:09;;;;;;;1.70;1.20;;;;;;;6.44;87.11;97978.16;5077881;28;20024;-70
2021/05/07 01:37:35;;;;;;;1.35;1.10;;;;;;;6.46;87.20;97976.09;5060620;28;20417;-67
2021/05/07 01:40:01;;;;;;;1.00;0.90;;;;;;;6.44;87.37;97989.72;5059494;28;20492;-68
2021/05/07 01:42:26;;;;;;;1.70;1.30;;;;;;;6.45;87.99;97993.25;5077030;28;20031;-68
2021/05/07 01:44:52;;;;;;;1.95;1.20;;;;;;;6.45;87.95;97995.94;5076177;28;20024;-68
2021/05/07 01:47:17;;;;;;;3.85;1.50;;;;;;;6.38;88.62;97989.69;5077786;28;20035;-68
2021/05/07 01:49:42;;;;;;;1.80;1.30;;;;;;;6.36;89.15;97995.25;5073952;28;20052;-68
2021/05/07 01:52:08;;;;;;;2.10;1.25;;;;;;;6.30;90.16;97996.88;5048847;28;20023;-70
2021/05/07 01:54:33;;;;;;;1.80;1.20;;;;;;;6.22;90.56;97974.72;5060045;28;20024;-70
2021/05/07 01:56:58;;;;;;;2.85;1.45;;;;;;;6.33;90.35;97991.09;5061685;28;20465;-68
2021/05/07 01:59:24;;;;;;;2.67;1.60;;;;;;;6.34;90.97;98002.66;5038262;28;20083;-67
2021/05/07 02:01:49;;;;;;;4.15;1.50;;;;;;;6.37;91.25;97996.94;5069544;28;20032;-70
2021/05/07 02:04:14;;;;;;;4.70;1.58;;;;;;;6.35;91.00;98002.47;5071526;28;20024;-67
2021/05/07 02:06:39;;;;;;;2.05;1.35;;;;;;;6.33;90.60;97992.97;5054195;28;20059;-68
2021/05/07 02:09:05;;;;;;;2.20;1.52;;;;;;;6.30;91.20;97990.66;5044211;28;20024;-68
2021/05/07 02:11:31;;;;;;;2.58;1.65;;;;;;;6.30;91.20;97983.44;5054451;28;20025;-68
2021/05/07 02:13:56;;;;;;;3.67;1.50;;;;;;;6.36;90.78;97988.00;5053685;28;20029;-68
2021/05/07 02:16:21;;;;;;;2.20;1.48;;;;;;;6.29;90.52;97978.28;5071773;28;20021;-69
2021/05/07 02:18:46;;;;;;;2.92;1.83;;;;;;;6.33;90.53;97987.59;5058728;28;20565;-68
2021/05/07 02:21:12;;;;;;;4.88;2.65;;;;;;;6.26;90.81;97973.28;5069679;28;20044;-69
2021/05/07 02:23:37;;;;;;;6.80;3.00;;;;;;;6.27;91.16;97981.16;5053311;28;20093;-68
2021/05/07 02:26:03;;;;;;;6.43;2.70;;;;;;;6.33;90.40;97999.16;5071484;28;20024;-68
2021/05/07 02:28:28;;;;;;;4.80;2.63;;;;;;;6.27;91.08;97988.38;5069796;28;20104;-68
2021/05/07 02:30:53;;;;;;;5.03;2.65;;;;;;;6.30;91.06;97988.81;5052224;28;20031;-68
2021/05/07 02:33:19;;;;;;;4.75;2.72;;;;;;;6.36;91.23;97988.00;5053018;28;20021;-68
2021/05/07 02:35:44;;;;;;;5.43;2.63;;;;;;;6.28;91.11;97985.47;5040677;28;20131;-69
2021/05/07 02:38:09;;;;;;;4.88;2.58;;;;;;;6.37;90.34;97988.88;5071230;28;20419;-68
2021/05/07 02:40:34;;;;;;;5.78;2.53;;;;;;;6.39;91.62;98007.47;5066581;28;20028;-68
2021/05/07 02:43:00;;;;;;;3.65;2.25;;;;;;;6.23;91.52;97987.94;5069240;28;20446;-68
2021/05/07 02:45:25;;;;;;;3.35;2.08;;;;;;;6.39;91.38;98008.28;5073928;28;20031;-68
2021/05/07 02:47:50;;;;;;;4.25;1.83;;;;;;;6.40;91.26;98009.97;5074243;28;20035;-69
2021/05/07 02:50:16;;;;;;;3.38;2.00;;;;;;;6.33;90.69;98004.53;5038849;28;20037;-68
2021/05/07 02:52:41;;;;;;;3.78;2.00;;;;;;;6.38;90.72;98001.25;5072033;28;20039;-68
2021/05/07 02:55:08;;;;;;;2.70;1.90;;;;;;;6.34;91.34;98019.63;5075497;28;20429;-69
2021/05/07 02:57:33;;;;;;;4.65;2.47;;;;;;;6.36;90.45;98014.06;5059841;28;20037;-68
2021/05/07 02:59:58;;;;;;;3.38;2.20;;;;;;;6.29;91.19;98008.66;5064877;28;20036;-69
2021/05/07 03:02:24;;;;;;;4.55;2.08;;;;;;;6.29;91.17;98011.34;5056012;28;20032;-68
2021/05/07 03:04:49;;;;;;;3.72;2.50;;;;;;;6.26;90.78;98011.72;5056066;28;20033;-68
2021/05/07 03:07:14;;;;;;;4.90;2.38;;;;;;;6.19;91.37;98013.53;5070341;28;20036;-68
2021/05/07 03:09:39;;;;;;;3.92;2.80;;;;;;;6.34;90.81;98029.53;5074598;28;20036;-68
2021/05/07 03:12:05;;;;;;;3.38;2.50;;;;;;;6.27;91.23;98024.13;5074272;28;20121;-69
2021/05/07 03:14:30;;;;;;;3.78;2.80;;;;;;;6.35;91.51;98028.53;5069814;28;20040;-67
2021/05/07 03:16:56;;;;;;;4.97;2.80;;;;;;;6.32;92.04;98028.91;5066938;28;20032;-68
2021/05/07 03:19:21;;;;;;;4.88;2.92;;;;;;;6.38;92.32;98038.88;5056899;28;20032;-69
2021/05/07 03:21:46;;;;;;;3.85;2.92;;;;;;;6.27;92.39;98021.44;5056329;28;20048;-68
2021/05/07 03:24:15;;;;;;;5.53;2.95;;;;;;;6.43;92.18;98040.97;5073312;28;20077;-68
2021/05/07 03:26:41;;;;;;;4.23;2.50;;;;;;;6.41;92.27;98040.34;5073735;28;20043;-68
2021/05/07 03:29:07;;;;;;;5.05;3.17;;;;;;;6.39;90.98;98047.75;5040368;28;20025;-68
2021/05/07 03:31:34;;;;;;;5.93;4.10;;;;;;;6.40;91.60;98041.38;5054713;28;20136;-68
2021/05/07 03:34:00;;;;;;;5.72;4.03;;;;;;;6.39;91.38;98053.97;5056324;28;20059;-69
2021/05/07 03:36:25;;;;;;;6.03;3.80;;;;;;;6.33;90.84;98046.69;5053479;28;20049;-69
2021/05/07 03:38:50;;;;;;;6.28;4.60;;;;;;;6.25;91.51;98044.16;5051325;28;20048;-68
2021/05/07 03:41:16;;;;;;;8.00;4.30;;;;;;;6.26;90.87;98065.47;5058293;28;20024;-69
2021/05/07 03:43:41;;;;;;;5.28;3.70;;;;;;;6.29;91.78;98067.75;5040217;28;20079;-68
2021/05/07 03:46:06;;;;;;;7.35;4.32;;;;;;;6.27;91.52;98063.59;5055833;28;20477;-69
2021/05/07 03:48:32;;;;;;;5.65;4.25;;;;;;;6.29;92.19;98077.66;5073671;28;20029;-69
2021/05/07 03:51:00;;;;;;;5.82;4.50;;;;;;;6.21;91.89;98070.56;5065774;28;20478;-68
2021/05/07 03:53:25;;;;;;;8.30;4.97;;;;;;;6.18;92.13;98068.25;5073339;28;20028;-68
2021/05/07 03:55:51;;;;;;;7.38;4.53;;;;;;;6.30;92.43;98096.25;5053765;28;20035;-68
2021/05/07 03:58:17;;;;;;;6.20;4.10;;;;;;;6.23;89.33;98081.94;5069046;28;20087;-69
2021/05/07 04:00:43;;;;;;;7.35;4.70;;;;;;;6.26;89.99;98091.47;5058748;28;20027;-68
2021/05/07 04:03:09;;;;;;;7.82;4.97;;;;;;;6.19;89.98;98099.47;5056116;28;20025;-68
2021/05/07 04:05:35;;;;;;;6.78;4.40;;;;;;;6.10;90.63;98081.81;5072582;28;20054;-68
2021/05/07 04:08:25;;;;;;;4.68;3.20;;;;;;;6.24;89.38;98106.97;5113843;22;20078;-74
2021/05/07 04:10:55;;;;;;;4.32;2.83;;;;;;;6.14;85.15;98100.03;5084191;28;20036;-73
2021/05/07 04:13:40;;;;;;;3.83;2.58;;;;;;;6.11;86.31;98113.88;5094237;28;20034;-73
2021/05/07 04:16:07;;;;;;;3.85;2.70;;;;;;;6.04;86.34;98120.19;5089572;28;20046;-73
2021/05/07 04:18:34;;;;;;;3.35;2.50;;;;;;;5.98;86.96;98116.41;5058939;28;20059;-73
2021/05/07 04:20:59;;;;;;;5.55;3.30;;;;;;;5.95;86.97;98115.94;5069747;28;20033;-73
2021/05/07 04:23:25;;;;;;;5.72;3.53;;;;;;;6.04;88.18;98130.94;5073516;28;20093;-73
2021/05/07 04:25:51;;;;;;;7.07;3.92;;;;;;;6.08;89.39;98135.72;5073491;28;20038;-73
2021/05/07 04:28:17;;;;;;;5.05;3.42;;;;;;;5.99;89.08;98141.41;5073121;28;20024;-74
2021/05/07 04:30:42;;;;;;;10.57;3.80;;;;;;;5.77;89.63;98106.47;5062160;28;20063;-73
2021/05/07 04:33:08;;;;;;;6.97;4.57;;;;;;;5.97;89.89;98151.50;5066834;28;20527;-73
2021/05/07 04:35:33;;;;;;;7.13;4.45;;;;;;;5.89;90.16;98137.16;5075633;28;20041;-73
2021/05/07 04:37:58;;;;;;;6.25;4.13;;;;;;;5.77;89.82;98140.53;5070617;28;20076;-76
2021/05/07 04:40:24;;;;;;;7.45;3.92;;;;;;;5.79;88.78;98144.69;5054604;28;20111;-75
2021/05/07 04:42:49;;;;;;;6.97;4.57;;;;;;;5.83;89.55;98148.63;5065676;28;20497;-76
2021/05/07 04:45:15;;;;;;;7.35;4.45;;;;;;;5.92;89.93;98158.25;5067848;28;20028;-76
2021/05/07 04:47:40;;;;;;;7.95;4.78;;;;;;;6.00;90.21;98173.44;5067542;28;20032;-76
2021/05/07 04:50:06;;;;;;;6.40;4.78;;;;;;;6.05;90.69;98171.03;5070630;28;20033;-74
2021/05/07 04:52:31;;;;;;;8.98;4.03;;;;;;;5.99;90.52;98166.41;5072238;28;20024;-74
2021/05/07 04:54:57;;;;;;;7.57;4.45;;;;;;;5.60;90.33;98102.34;5073731;28;20035;-74
2021/05/07 04:57:23;;;;;;;8.32;4.22;;;;;;;6.20;89.39;98180.88;5051487;28;20035;-69
2021/05/07 04:59:48;;;;;;;5.95;3.80;;;;;;;6.18;89.21;98189.13;5063852;28;20371;-71
2021/05/07 05:02:13;;;;;;;5.80;3.53;;;;;;;6.11;87.95;98180.19;5067922;28;20138;-79
2021/05/07 05:04:39;;;;;;;7.90;3.05;;;;;;;6.05;86.36;98178.22;5072720;28;20035;-75
2021/05/07 05:07:07;;;;;;;7.78;3.55;;;;;;;6.19;87.45;98190.78;5065205;28;20102;-74
2021/05/07 05:09:32;;;;;;;5.38;3.55;;;;;;;6.14;87.50;98177.94;5045308;28;20123;-75
2021/05/07 05:11:58;;;;;;;5.78;3.33;;;;;;;6.22;86.73;98186.91;5070273;28;20443;-74
2021/05/07 05:14:23;;;;;;;5.15;3.30;;;;;;;6.13;86.97;98173.59;5072585;28;20541;-75
2021/05/07 05:16:48;;;;;;;5.38;3.50;;;;;;;6.27;86.89;98192.53;5073208;28;20028;-75
2021/05/07 05:19:13;;;;;;;4.93;3.03;;;;;;;6.04;86.40;98190.00;5055678;28;20036;-74
2021/05/07 05:21:39;;;;;;;8.38;3.40;;;;;;;6.22;87.57;98181.53;5072252;28;20036;-75
2021/05/07 05:24:05;;;;;;;4.20;2.80;;;;;;;6.33;87.02;98197.97;5054079;28;20094;-72
2021/05/07 05:26:30;;;;;;;4.85;3.67;;;;;;;6.47;86.30;98203.47;5070668;28;20062;-71
2021/05/07 05:28:55;;;;;;;7.10;3.22;;;;;;;6.49;85.70;98212.16;5071002;28;20432;-73
2021/05/07 05:31:20;;;;;;;5.50;2.85;;;;;;;6.45;84.92;98224.34;5055654;28;20028;-72
2021/05/07 05:33:46;;;;;;;6.15;2.45;;;;;;;6.46;84.97;98199.94;5072648;28;20020;-72
2021/05/07 05:36:11;;;;;;;6.10;2.67;;;;;;;6.50;84.95;98222.75;5074577;28;20026;-72
2021/05/07 05:38:36;;;;;;;3.97;2.70;;;;;;;6.56;84.25;98219.28;5068471;28;20029;-71
2021/05/07 05:41:02;;;;;;;6.65;2.88;;;;;;;6.64;83.96;98210.25;5062337;28;20516;-72
2021/05/07 05:43:27;;;;;;;4.90;3.03;;;;;;;6.63;85.45;98208.59;5064871;28;20024;-73
2021/05/07 05:45:52;;;;;;;6.32;3.42;;;;;;;6.77;85.75;98221.13;5063931;28;20036;-75
2021/05/07 05:48:18;;;;;;;5.13;3.15;;;;;;;6.77;86.21;98225.66;5060558;28;20021;-75
2021/05/07 05:50:50;;;;;;;5.35;3.22;;;;;;;6.73;83.88;98227.94;5069637;28;20355;-74
2021/05/07 05:53:17;;;;;;;4.50;2.63;;;;;;;6.64;84.66;98231.75;5053325;28;20155;-76
2021/05/07 05:55:43;;;;;;;5.30;3.00;;;;;;;6.57;84.51;98236.22;5062317;28;20224;-74
2021/05/07 05:58:08;;;;;;;6.13;3.30;;;;;;;6.66;84.15;98240.47;5064757;28;20025;-75
2021/05/07 06:00:35;;;;;;;3.92;2.75;;;;;;;6.79;83.87;98253.19;5046496;28;20032;-72
2021/05/07 06:03:00;;;;;;;9.10;3.70;;;;;;;6.63;84.77;98226.56;5060806;28;20111;-72
2021/05/07 06:05:26;;;;;;;6.13;3.67;;;;;;;6.66;84.83;98250.38;5063056;28;20111;-73
2021/05/07 06:07:51;;;;;;;5.90;3.88;;;;;;;6.57;85.08;98238.91;5060860;28;20025;-74
2021/05/07 06:10:18;;;;;;;5.93;3.28;;;;;;;6.54;84.66;98253.56;5055739;28;20036;-73
2021/05/07 06:12:46;;;;;;;7.00;4.35;;;;;;;6.40;85.21;98261.69;5056731;28;20623;-73
2021/05/07 06:15:12;;;;;;;8.88;4.28;;;;;;;6.40;84.73;98267.06;5058391;28;20082;-73
2021/05/07 06:17:38;;;;;;;7.13;4.30;;;;;;;6.44;85.14;98262.97;5059530;28;20051;-73
2021/05/07 06:20:05;;;;;;;6.60;4.20;;;;;;;6.47;85.09;98266.13;5044252;28;20067;-73
2021/05/07 06:22:32;;;;;;;7.30;4.32;;;;;;;6.44;84.86;98258.41;5054320;28;20020;-72
2021/05/07 06:24:58;;;;;;;8.27;4.60;;;;;;;6.53;84.58;98261.84;5060023;28;20497;-74
2021/05/07 06:27:23;;;;;;;7.75;4.30;;;;;;;6.60;83.89;98278.84;5068652;28;20081;-73
2021/05/07 06:29:49;;;;;;;5.35;4.10;;;;;;;6.54;83.73;98268.88;5063146;28;20032;-71
2021/05/07 06:32:14;;;;;;;7.20;4.28;;;;;;;6.58;83.51;98275.53;5059158;28;20033;-73
2021/05/07 06:34:39;;;;;;;6.65;4.03;;;;;;;6.53;84.60;98276.09;5059932;28;21018;-73
2021/05/07 06:37:05;;;;;;;6.57;4.25;;;;;;;6.62;83.87;98281.34;5056675;28;20024;-72
2021/05/07 06:39:30;;;;;;;6.40;3.90;;;;;;;6.53;84.16;98275.28;5045922;28;20024;-72
2021/05/07 06:41:59;;;;;;;5.80;3.83;;;;;;;6.62;83.44;98284.03;5058855;28;20436;-72
2021/05/07 06:44:25;;;;;;;7.32;3.95;;;;;;;6.60;83.56;98281.53;5058396;28;20020;-76
2021/05/07 06:46:52;;;;;;;6.32;4.18;;;;;;;6.57;84.19;98298.88;5060133;28;20060;-75
2021/05/07 06:49:17;;;;;;;6.47;4.18;;;;;;;6.53;83.13;98294.91;5054080;28;20024;-74
2021/05/07 06:51:42;;;;;;;5.55;3.97;;;;;;;6.37;83.89;98289.78;5069225;28;20037;-73
2021/05/07 06:54:08;;;;;;;7.95;3.65;;;;;;;6.42;83.52;98302.63;5050228;28;20032;-72
2021/05/07 06:56:34;;;;;;;6.55;4.35;;;;;;;6.32;83.43;98306.44;5065234;28;20103;-74
2021/05/07 06:59:00;;;;;;;7.70;4.50;;;;;;;6.42;84.47;98314.22;5046024;28;20020;-74
2021/05/07 07:01:25;;;;;;;6.97;4.47;;;;;;;6.40;83.77;98313.56;5059729;28;20107;-75
2021/05/07 07:03:51;;;;;;;5.70;4.20;;;;;;;6.40;81.95;98302.00;5053103;28;20047;-76
2021/05/07 07:06:16;;;;;;;8.85;5.00;;;;;;;6.55;83.29;98319.75;5053903;28;20025;-76
2021/05/07 07:08:42;;;;;;;9.57;4.65;;;;;;;6.63;83.22;98324.19;5063000;28;20377;-78
2021/05/07 07:11:07;;;;;;;6.82;4.60;;;;;;;6.65;82.89;98319.41;5056640;28;20027;-76
2021/05/07 07:13:32;;;;;;;7.70;5.20;;;;;;;6.71;82.81;98326.75;5057398;28;20029;-77
2021/05/07 07:15:58;;;;;;;6.90;5.05;;;;;;;6.55;83.33;98324.28;5033956;28;20016;-77
2021/05/07 07:18:23;;;;;;;8.93;5.50;;;;;;;6.46;83.38;98320.03;5058997;28;20031;-76
2021/05/07 07:20:49;;;;;;;7.10;4.90;;;;;;;6.41;83.66;98327.84;5061290;28;20020;-76
2021/05/07 07:23:15;;;;;;;7.30;4.65;;;;;;;6.40;83.26;98340.44;5056251;28;20016;-76
2021/05/07 07:25:41;;;;;;;7.20;5.07;;;;;;;6.30;83.28;98348.78;5070165;28;20028;-76
2021/05/07 07:28:06;;;;;;;7.07;4.85;;;;;;;6.35;83.04;98353.59;5075515;28;20059;-77
2021/05/07 07:30:32;;;;;;;6.68;4.95;;;;;;;6.29;83.00;98344.44;5056254;28;20102;-77
2021/05/07 07:32:58;;;;;;;8.35;5.47;;;;;;;6.50;83.30;98365.16;5074175;28;20120;-74
2021/05/07 07:35:23;;;;;;;7.00;5.43;;;;;;;6.47;82.55;98368.25;5050735;28;20024;-72
2021/05/07 07:37:49;;;;;;;9.82;5.32;;;;;;;6.45;83.02;98367.59;5061884;28;20449;-72
2021/05/07 07:40:14;;;;;;;11.25;5.53;;;;;;;6.55;82.08;98376.19;5066023;28;20032;-72
2021/05/07 07:42:43;;;;;;;8.40;5.13;;;;;;;6.68;82.45;98383.59;5071931;28;20020;-73
2021/05/07 07:45:09;;;;;;;7.80;5.63;;;;;;;6.85;81.24;98389.56;5072877;28;20078;-72
2021/05/07 07:47:35;;;;;;;10.40;6.10;;;;;;;6.98;81.16;98387.00;5066876;28;20078;-75
2021/05/07 07:50:01;;;;;;;7.53;5.50;;;;;;;7.21;79.86;98384.16;5062737;28;20032;-75
2021/05/07 07:52:26;;;;;;;8.65;5.47;;;;;;;7.44;79.19;98383.09;5067395;28;20389;-75
2021/05/07 07:54:51;;;;;;;9.63;6.20;;;;;;;7.53;76.38;98379.25;5073805;28;20028;-76
2021/05/07 07:57:16;;;;;;;8.20;6.10;;;;;;;7.60;75.84;98390.09;5073729;28;20494;-74
2021/05/07 07:59:42;;;;;;;11.48;5.82;;;;;;;8.00;75.07;98387.69;5069614;28;20031;-73
2021/05/07 08:02:07;;;;;;;10.55;6.15;;;;;;;8.53;73.97;98396.09;5065002;28;20027;-75
2021/05/07 08:04:32;;;;;;;7.10;5.00;;;;;;;9.72;70.06;98381.19;5066391;28;20025;-73
2021/05/07 08:06:59;;;;;;;12.05;5.35;;;;;;;10.08;67.73;98384.28;5070941;28;20024;-72
2021/05/07 08:09:24;;;;;;;9.63;5.28;;;;;;;12.67;59.87;98375.50;5065938;28;20111;-75
2021/05/07 08:11:52;;;;;;;7.93;5.00;;;;;;;15.89;53.37;98379.28;5056067;28;20116;-75
2021/05/07 08:14:17;;;;;;;9.52;4.30;;;;;;;18.12;46.55;98379.47;5052145;28;20027;-75
2021/05/07 08:16:43;;;;;;;7.95;4.97;;;;;;;18.75;44.88;98382.34;5054882;28;20123;-75
2021/05/07 08:19:08;;;;;;;6.00;4.57;;;;;;;19.48;41.82;98376.81;5069518;28;20394;-73
2021/05/07 08:21:34;;;;;;;6.50;4.20;;;;;;;20.16;40.13;98383.22;5067390;28;20017;-75
2021/05/07 08:23:59;;;;;;;5.60;4.20;;;;;;;20.12;39.62;98391.16;5063691;28;20054;-71
2021/05/07 08:26:25;;;;;;;5.63;3.85;;;;;;;20.96;38.75;98399.81;5049411;28;20027;-74
2021/05/07 08:28:50;;;;;;;4.80;3.90;;;;;;;21.95;37.69;98388.78;5069888;28;20032;-74
2021/05/07 08:31:15;;;;;;;5.47;3.42;;;;;;;22.38;35.95;98388.97;5043830;28;20040;-74
2021/05/07 08:33:41;;;;;;;4.60;3.72;;;;;;;21.64;35.58;98400.03;5061431;28;20418;-73
2021/05/07 08:36:06;;;;;;;5.70;3.60;;;;;;;22.34;35.88;98409.16;5061151;28;20116;-74
2021/05/07 08:38:31;;;;;;;6.95;4.20;;;;;;;21.57;36.39;98399.53;5064909;28;20482;-75
2021/05/07 08:41:03;;;;;;;5.72;4.07;;;;;;;20.18;38.66;98427.72;5069116;28;20023;-72
2021/05/07 08:43:29;;;;;;;7.10;4.13;;;;;;;17.45;43.86;98438.25;5067350;28;20442;-74
2021/05/07 08:45:54;;;;;;;8.23;4.72;;;;;;;15.22;48.19;98445.41;5065420;28;20040;-75
2021/05/07 08:48:20;;;;;;;9.30;5.03;;;;;;;13.39;51.27;98435.41;5072160;28;20055;-76
2021/05/07 08:50:49;;;;;;;7.10;4.65;;;;;;;12.45;52.86;98457.38;5075144;28;20024;-74
2021/05/07 08:53:18;;;;;;;;;;;;;;;14.63;49.29;98456.44;5071814;28;21645;-74
2021/05/07 08:55:45;;;;;;;5.32;4.10;;;;;;;16.69;44.96;98453.63;5057157;28;19912;-75
2021/05/07 08:58:11;;;;;;;8.23;4.13;;;;;;;16.38;45.42;98458.69;5045525;28;20029;-76
2021/05/07 09:00:37;;;;;;;4.47;3.88;;;;;;;15.38;45.99;98461.00;5056322;28;20033;-75
2021/05/07 09:03:11;;;;;;;7.03;3.80;;;;;;;15.57;45.92;98462.44;5045508;28;20032;-75
2021/05/07 09:05:37;;;;;;;5.72;3.33;;;;;;;16.78;43.87;98471.31;5053959;28;20051;-75
2021/05/07 09:08:07;;;;;;;7.47;4.07;;;;;;;18.49;42.64;98469.03;5071336;28;20441;-75
2021/05/07 09:10:43;;;;;;;5.35;3.95;;;;;;;18.82;39.43;98458.88;5073381;28;20027;-75
2021/05/07 09:13:11;;;;;;;5.25;3.13;;;;;;;19.81;36.82;98467.22;5067986;28;20107;-74
2021/05/07 09:15:37;;;;;;;6.95;3.30;;;;;;;19.98;39.05;98473.28;5072417;28;20055;-75
2021/05/07 09:18:03;;;;;;;4.45;2.90;;;;;;;21.31;35.13;98466.78;5070849;28;20035;-74
2021/05/07 09:20:42;;;;;;;4.90;2.80;;;;;;;19.74;36.79;98467.47;5072821;28;20029;-74
2021/05/07 09:23:12;;;;;;;5.30;2.53;;;;;;;20.61;35.33;98470.28;5048080;28;20031;-72
2021/05/07 09:25:40;;;;;;;4.10;2.60;;;;;;;20.74;35.57;98475.19;5063589;28;20033;-73
2021/05/07 09:28:07;;;;;;;3.28;2.67;;;;;;;20.97;34.02;98472.97;5056047;28;20456;-74
2021/05/07 09:35:44;;;;;;;3.97;2.63;;;;;;;18.18;38.52;98474.28;5506186;22;20048;-75
2021/05/07 09:38:13;;;;;;;5.22;2.88;;;;;;;18.17;35.87;98486.31;5081670;28;20047;-75
2021/05/07 09:40:41;;;;;;;6.15;2.80;;;;;;;17.37;38.71;98492.56;5091544;28;20472;-75
2021/05/07 09:43:08;;;;;;;4.18;2.30;;;;;;;18.08;37.37;98489.81;5084053;28;20115;-75
2021/05/07 09:45:34;;;;;;;3.50;2.88;;;;;;;16.68;41.85;98496.53;5070022;28;20028;-70
2021/05/07 09:48:00;;;;;;;8.70;3.40;;;;;;;14.64;43.16;98518.78;5075688;28;20447;-72
2021/05/07 09:50:39;;;;;;;4.28;2.75;;;;;;;13.19;45.86;98498.13;5076783;28;20021;-72
2021/05/07 09:53:16;;;;;;;6.00;3.10;;;;;;;16.29;41.63;98514.75;5071918;28;20052;-71
2021/05/07 09:55:42;;;;;;;6.13;2.90;;;;;;;18.53;39.06;98508.53;5072458;28;20417;-70
2021/05/07 09:58:08;;;;;;;6.07;2.63;;;;;;;19.83;36.49;98507.03;5076900;28;20013;-70
2021/05/07 10:00:33;;;;;;;4.45;2.80;;;;;;;21.07;34.26;98514.19;5092047;28;20027;-70
2021/05/07 10:02:59;;;;;;;4.32;2.60;;;;;;;21.31;32.68;98510.81;5087991;28;20040;-70
2021/05/07 10:05:27;;;;;;;3.50;2.67;;;;;;;21.28;32.01;98514.13;5058275;28;20016;-73
2021/05/07 10:07:53;;;;;;;4.80;2.63;;;;;;;20.80;31.81;98517.25;5072174;28;20032;-73
2021/05/07 10:10:18;;;;;;;4.43;2.67;;;;;;;20.61;33.46;98530.75;5051551;28;20075;-73
2021/05/07 10:12:45;;;;;;;4.15;2.53;;;;;;;21.83;32.15;98523.28;5081224;28;20525;-70
2021/05/07 10:15:11;;;;;;;4.68;2.85;;;;;;;19.07;34.83;98529.44;5053632;28;20036;-70
2021/05/07 10:17:48;;;;;;;3.60;2.88;;;;;;;16.07;38.57;98534.59;5086588;28;20024;-70
2021/05/07 10:20:24;;;;;;;4.30;2.80;;;;;;;13.43;42.53;98539.84;5075474;28;20111;-73
2021/05/07 10:22:50;;;;;;;5.13;2.90;;;;;;;14.39;44.00;98559.00;5069892;28;20025;-73
2021/05/07 10:25:19;;;;;;;4.00;3.00;;;;;;;14.32;42.56;98564.53;5069857;28;20032;-71
2021/05/07 10:27:49;;;;;;;4.57;2.42;;;;;;;13.52;44.65;98573.00;5068918;28;20021;-71
2021/05/07 10:30:22;;;;;;;4.55;2.85;;;;;;;12.74;44.36;98570.88;5068763;28;20032;-70
2021/05/07 10:32:56;;;;;;;3.70;2.60;;;;;;;12.15;44.87;98573.00;5058248;28;20020;-71
2021/05/07 10:35:33;;;;;;;5.80;2.50;;;;;;;12.37;45.50;98585.19;5092655;28;20028;-70
2021/05/07 10:38:16;;;;;;;3.30;2.50;;;;;;;12.46;44.52;98569.44;5069438;28;20039;-70
2021/05/07 10:40:43;;;;;;;4.78;2.53;;;;;;;12.18;46.20;98591.56;5076300;28;20619;-71
2021/05/07 10:43:09;;;;;;;4.43;2.90;;;;;;;12.48;46.85;98592.59;5055898;28;20047;-70
2021/05/07 10:45:44;;;;;;;3.85;2.45;;;;;;;13.20;44.75;98594.84;5069652;28;20040;-70
2021/05/07 10:48:13;;;;;;;5.03;2.70;;;;;;;12.88;46.02;98591.41;5050828;28;20115;-70
2021/05/07 10:50:40;;;;;;;4.90;2.45;;;;;;;13.10;45.97;98594.56;5064625;28;20063;-70
2021/05/07 10:53:05;;;;;;;2.53;2.03;;;;;;;14.93;40.94;98580.72;5069353;28;20029;-71
2021/05/07 10:55:34;;;;;;;3.45;2.25;;;;;;;17.36;36.95;98583.88;5069739;28;20059;-70
2021/05/07 10:58:04;;;;;;;;;;;;;;;17.24;38.27;98575.81;5054898;28;20512;-71
2021/05/07 11:00:35;;;;;;;5.25;2.35;;;;;;;17.70;35.95;98579.94;5061742;28;20011;-70
2021/05/07 11:03:04;;;;;;;5.70;2.55;;;;;;;16.46;35.51;98572.13;5076203;28;20631;-70
2021/05/07 11:05:37;;;;;;;4.22;2.17;;;;;;;15.11;38.18;98572.44;5055119;28;20028;-71
2021/05/07 11:08:03;;;;;;;3.83;2.28;;;;;;;14.04;40.66;98581.47;5073022;28;20085;-72
2021/05/07 11:10:28;;;;;;;4.10;2.30;;;;;;;13.25;41.64;98599.59;5080523;28;20028;-70
2021/05/07 11:12:54;;;;;;;3.55;2.33;;;;;;;12.42;42.53;98604.34;5064003;28;20055;-71
2021/05/07 11:15:20;;;;;;;4.05;2.17;;;;;;;12.17;44.13;98606.19;5070333;28;20040;-70
2021/05/07 11:17:45;;;;;;;6.88;2.53;;;;;;;12.02;44.28;98601.88;5065885;28;20035;-70
2021/05/07 11:20:11;;;;;;;3.80;2.28;;;;;;;15.65;38.68;98592.13;5068374;28;20544;-70
2021/05/07 11:22:39;;;;;;;3.63;1.90;;;;;;;17.12;36.70;98597.78;5081308;28;20481;-71
2021/05/07 11:25:07;;;;;;;8.65;2.47;;;;;;;18.77;37.18;98595.88;5054582;28;20025;-71
2021/05/07 11:27:32;;;;;;;4.40;2.40;;;;;;;18.62;34.41;98577.34;5088200;28;20401;-71
2021/05/07 11:29:57;;;;;;;3.67;2.40;;;;;;;17.43;35.79;98595.47;5062483;28;20097;-71
2021/05/07 11:32:24;;;;;;;6.40;2.30;;;;;;;15.92;39.80;98602.50;5087812;28;20032;-71
2021/05/07 11:34:54;;;;;;;4.03;2.38;;;;;;;14.74;41.69;98615.41;5062454;28;20038;-71
2021/05/07 11:37:20;;;;;;;3.63;2.17;;;;;;;14.54;41.16;98622.03;5055156;28;20051;-70
2021/05/07 11:40:05;;;;;;;3.30;2.35;;;;;;;13.91;42.05;98615.16;5058037;28;20036;-71
2021/05/07 11:42:45;;;;;;;3.20;2.10;;;;;;;13.81;43.22;98621.13;5074485;28;20024;-71